sensor_id;sensor_type;location;lat;lon;timestamp;temperature;humidity
71082;SHT31;58740;50.672;18.690;2023-05-29T00:00:43;13.16;61.59
71082;SHT31;58740;50.672;18.690;2023-05-29T00:03:24;13.16;61.67
71082;SHT31;58740;50.672;18.690;2023-05-29T00:05:52;13.14;61.72
71082;SHT31;58740;50.672;18.690;2023-05-29T00:08:20;13.11;61.90
71082;SHT31;58740;50.672;18.690;2023-05-29T00:10:48;13.09;62.08
71082;SHT31;58740;50.672;18.690;2023-05-29T00:13:16;13.06;62.16
71082;SHT31;58740;50.672;18.690;2023-05-29T00:15:44;13.01;62.24
71082;SHT31;58740;50.672;18.690;2023-05-29T00:18:12;12.99;62.37
71082;SHT31;58740;50.672;18.690;2023-05-29T00:20:39;12.96;62.47
71082;SHT31;58740;50.672;18.690;2023-05-29T00:23:07;12.92;62.65
71082;SHT31;58740;50.672;18.690;2023-05-29T00:25:37;12.86;62.85
71082;SHT31;58740;50.672;18.690;2023-05-29T00:28:04;12.81;62.96
71082;SHT31;58740;50.672;18.690;2023-05-29T00:30:33;12.76;63.15
71082;SHT31;58740;50.672;18.690;2023-05-29T00:33:01;12.73;63.22
71082;SHT31;58740;50.672;18.690;2023-05-29T00:35:28;12.69;63.28
71082;SHT31;58740;50.672;18.690;2023-05-29T00:37:57;12.65;63.35
71082;SHT31;58740;50.672;18.690;2023-05-29T00:40:25;12.62;63.43
71082;SHT31;58740;50.672;18.690;2023-05-29T00:42:54;12.60;63.53
71082;SHT31;58740;50.672;18.690;2023-05-29T00:45:21;12.57;63.65
71082;SHT31;58740;50.672;18.690;2023-05-29T00:47:49;12.56;63.56
71082;SHT31;58740;50.672;18.690;2023-05-29T00:50:17;12.54;63.56
71082;SHT31;58740;50.672;18.690;2023-05-29T00:52:48;12.56;63.51
71082;SHT31;58740;50.672;18.690;2023-05-29T00:55:17;12.55;63.56
71082;SHT31;58740;50.672;18.690;2023-05-29T00:57:45;12.52;63.71
71082;SHT31;58740;50.672;18.690;2023-05-29T01:00:14;12.48;63.92
71082;SHT31;58740;50.672;18.690;2023-05-29T01:02:43;12.44;64.14
71082;SHT31;58740;50.672;18.690;2023-05-29T01:05:13;12.40;64.23
71082;SHT31;58740;50.672;18.690;2023-05-29T01:07:42;12.39;64.20
71082;SHT31;58740;50.672;18.690;2023-05-29T01:10:10;12.34;64.31
71082;SHT31;58740;50.672;18.690;2023-05-29T01:15:35;12.29;64.46
71082;SHT31;58740;50.672;18.690;2023-05-29T01:27:28;12.21;64.69
71082;SHT31;58740;50.672;18.690;2023-05-29T01:29:59;12.19;64.76
71082;SHT31;58740;50.672;18.690;2023-05-29T01:32:30;12.18;64.77
71082;SHT31;58740;50.672;18.690;2023-05-29T01:35:00;12.16;64.78
71082;SHT31;58740;50.672;18.690;2023-05-29T01:37:27;12.13;64.82
71082;SHT31;58740;50.672;18.690;2023-05-29T01:39:55;12.11;64.87
71082;SHT31;58740;50.672;18.690;2023-05-29T01:42:23;12.09;65.00
71082;SHT31;58740;50.672;18.690;2023-05-29T01:44:51;12.06;65.09
71082;SHT31;58740;50.672;18.690;2023-05-29T01:47:20;12.03;65.16
71082;SHT31;58740;50.672;18.690;2023-05-29T01:49:48;12.00;65.24
71082;SHT31;58740;50.672;18.690;2023-05-29T01:52:19;11.95;65.36
71082;SHT31;58740;50.672;18.690;2023-05-29T01:54:46;11.92;65.36
71082;SHT31;58740;50.672;18.690;2023-05-29T01:57:14;11.91;65.33
71082;SHT31;58740;50.672;18.690;2023-05-29T01:59:43;11.88;65.45
71082;SHT31;58740;50.672;18.690;2023-05-29T02:02:12;11.87;65.55
71082;SHT31;58740;50.672;18.690;2023-05-29T02:04:39;11.86;65.48
71082;SHT31;58740;50.672;18.690;2023-05-29T02:07:07;11.85;65.52
71082;SHT31;58740;50.672;18.690;2023-05-29T02:09:35;11.85;65.57
71082;SHT31;58740;50.672;18.690;2023-05-29T02:12:03;11.85;65.55
71082;SHT31;58740;50.672;18.690;2023-05-29T02:14:31;11.84;65.48
71082;SHT31;58740;50.672;18.690;2023-05-29T02:16:59;11.82;65.47
71082;SHT31;58740;50.672;18.690;2023-05-29T02:19:29;11.80;65.47
71082;SHT31;58740;50.672;18.690;2023-05-29T02:21:56;11.77;65.50
71082;SHT31;58740;50.672;18.690;2023-05-29T02:24:24;11.77;65.47
71082;SHT31;58740;50.672;18.690;2023-05-29T02:26:52;11.73;65.58
71082;SHT31;58740;50.672;18.690;2023-05-29T02:29:20;11.70;65.66
71082;SHT31;58740;50.672;18.690;2023-05-29T02:31:48;11.67;65.64
71082;SHT31;58740;50.672;18.690;2023-05-29T02:34:15;11.66;65.62
71082;SHT31;58740;50.672;18.690;2023-05-29T02:36:43;11.64;65.67
71082;SHT31;58740;50.672;18.690;2023-05-29T02:39:11;11.62;65.73
71082;SHT31;58740;50.672;18.690;2023-05-29T02:41:40;11.58;65.85
71082;SHT31;58740;50.672;18.690;2023-05-29T02:44:07;11.55;65.82
71082;SHT31;58740;50.672;18.690;2023-05-29T02:46:35;11.52;65.88
71082;SHT31;58740;50.672;18.690;2023-05-29T02:49:03;11.51;65.92
71082;SHT31;58740;50.672;18.690;2023-05-29T02:51:31;11.48;65.94
71082;SHT31;58740;50.672;18.690;2023-05-29T02:53:59;11.45;65.98
71082;SHT31;58740;50.672;18.690;2023-05-29T02:56:27;11.44;66.05
71082;SHT31;58740;50.672;18.690;2023-05-29T02:58:55;11.40;66.12
71082;SHT31;58740;50.672;18.690;2023-05-29T03:01:23;11.37;66.21
71082;SHT31;58740;50.672;18.690;2023-05-29T03:03:51;11.37;66.23
71082;SHT31;58740;50.672;18.690;2023-05-29T03:06:19;11.38;66.22
71082;SHT31;58740;50.672;18.690;2023-05-29T03:08:47;11.38;66.33
71082;SHT31;58740;50.672;18.690;2023-05-29T03:11:15;11.37;66.39
71082;SHT31;58740;50.672;18.690;2023-05-29T03:13:43;11.39;66.41
71082;SHT31;58740;50.672;18.690;2023-05-29T03:16:10;11.38;66.45
71082;SHT31;58740;50.672;18.690;2023-05-29T03:18:38;11.37;66.46
71082;SHT31;58740;50.672;18.690;2023-05-29T03:21:07;11.37;66.46
71082;SHT31;58740;50.672;18.690;2023-05-29T03:23:35;11.39;66.44
71082;SHT31;58740;50.672;18.690;2023-05-29T03:26:03;11.38;66.55
71082;SHT31;58740;50.672;18.690;2023-05-29T03:28:32;11.38;66.53
71082;SHT31;58740;50.672;18.690;2023-05-29T03:31:00;11.40;66.56
71082;SHT31;58740;50.672;18.690;2023-05-29T03:33:29;11.40;66.75
71082;SHT31;58740;50.672;18.690;2023-05-29T03:35:56;11.40;66.91
71082;SHT31;58740;50.672;18.690;2023-05-29T03:38:24;11.40;67.01
71082;SHT31;58740;50.672;18.690;2023-05-29T03:40:52;11.42;67.00
71082;SHT31;58740;50.672;18.690;2023-05-29T03:43:20;11.48;66.99
71082;SHT31;58740;50.672;18.690;2023-05-29T03:45:47;11.51;66.80
71082;SHT31;58740;50.672;18.690;2023-05-29T03:48:15;11.55;66.62
71082;SHT31;58740;50.672;18.690;2023-05-29T03:50:44;11.58;66.42
71082;SHT31;58740;50.672;18.690;2023-05-29T03:53:13;11.57;66.39
71082;SHT31;58740;50.672;18.690;2023-05-29T03:55:41;11.58;66.43
71082;SHT31;58740;50.672;18.690;2023-05-29T03:58:09;11.62;66.46
71082;SHT31;58740;50.672;18.690;2023-05-29T04:00:39;11.65;66.45
71082;SHT31;58740;50.672;18.690;2023-05-29T04:03:07;11.70;66.40
71082;SHT31;58740;50.672;18.690;2023-05-29T04:05:36;11.75;66.40
71082;SHT31;58740;50.672;18.690;2023-05-29T04:08:04;11.79;66.39
71082;SHT31;58740;50.672;18.690;2023-05-29T04:10:42;11.85;66.44
71082;SHT31;58740;50.672;18.690;2023-05-29T04:13:11;11.89;66.40
71082;SHT31;58740;50.672;18.690;2023-05-29T04:15:39;11.95;66.40
71082;SHT31;58740;50.672;18.690;2023-05-29T04:18:07;12.02;66.47
71082;SHT31;58740;50.672;18.690;2023-05-29T04:20:34;12.10;66.39
71082;SHT31;58740;50.672;18.690;2023-05-29T04:23:02;12.16;66.31
71082;SHT31;58740;50.672;18.690;2023-05-29T04:25:30;12.22;66.26
71082;SHT31;58740;50.672;18.690;2023-05-29T04:27:59;12.27;66.23
71082;SHT31;58740;50.672;18.690;2023-05-29T04:30:29;12.31;66.31
71082;SHT31;58740;50.672;18.690;2023-05-29T04:32:59;12.38;66.35
71082;SHT31;58740;50.672;18.690;2023-05-29T04:35:27;12.45;66.36
71082;SHT31;58740;50.672;18.690;2023-05-29T04:37:55;12.53;66.37
71082;SHT31;58740;50.672;18.690;2023-05-29T04:40:23;12.60;66.47
71082;SHT31;58740;50.672;18.690;2023-05-29T04:42:51;12.69;66.48
71082;SHT31;58740;50.672;18.690;2023-05-29T04:45:20;12.76;66.49
71082;SHT31;58740;50.672;18.690;2023-05-29T04:47:51;12.81;66.54
71082;SHT31;58740;50.672;18.690;2023-05-29T04:50:21;12.90;66.45
71082;SHT31;58740;50.672;18.690;2023-05-29T04:52:54;12.97;66.32
71082;SHT31;58740;50.672;18.690;2023-05-29T04:55:22;13.05;66.28
71082;SHT31;58740;50.672;18.690;2023-05-29T04:57:51;13.12;66.37
71082;SHT31;58740;50.672;18.690;2023-05-29T05:00:19;13.22;66.28
71082;SHT31;58740;50.672;18.690;2023-05-29T05:02:49;13.31;66.28
71082;SHT31;58740;50.672;18.690;2023-05-29T05:05:17;13.39;66.41
71082;SHT31;58740;50.672;18.690;2023-05-29T05:07:44;13.49;66.33
71082;SHT31;58740;50.672;18.690;2023-05-29T05:10:12;13.59;66.38
71082;SHT31;58740;50.672;18.690;2023-05-29T05:12:40;13.68;66.38
71082;SHT31;58740;50.672;18.690;2023-05-29T05:15:08;13.80;66.28
71082;SHT31;58740;50.672;18.690;2023-05-29T05:17:37;13.92;66.36
71082;SHT31;58740;50.672;18.690;2023-05-29T05:20:05;14.03;66.44
71082;SHT31;58740;50.672;18.690;2023-05-29T05:22:35;14.15;66.54
71082;SHT31;58740;50.672;18.690;2023-05-29T05:25:03;14.27;66.52
71082;SHT31;58740;50.672;18.690;2023-05-29T05:27:32;14.38;66.22
71082;SHT31;58740;50.672;18.690;2023-05-29T05:30:02;14.49;66.13
71082;SHT31;58740;50.672;18.690;2023-05-29T05:32:31;14.61;66.10
71082;SHT31;58740;50.672;18.690;2023-05-29T05:34:59;14.74;65.83
71082;SHT31;58740;50.672;18.690;2023-05-29T05:37:27;14.85;65.57
71082;SHT31;58740;50.672;18.690;2023-05-29T05:39:54;14.97;64.90
71082;SHT31;58740;50.672;18.690;2023-05-29T05:42:24;15.10;64.96
71082;SHT31;58740;50.672;18.690;2023-05-29T05:44:52;15.25;64.07
71082;SHT31;58740;50.672;18.690;2023-05-29T05:47:20;15.37;63.46
71082;SHT31;58740;50.672;18.690;2023-05-29T05:49:48;15.54;63.52
71082;SHT31;58740;50.672;18.690;2023-05-29T05:52:17;15.70;62.85
71082;SHT31;58740;50.672;18.690;2023-05-29T05:54:45;15.86;63.07
71082;SHT31;58740;50.672;18.690;2023-05-29T05:57:13;16.04;62.94
71082;SHT31;58740;50.672;18.690;2023-05-29T05:59:41;16.20;62.71
71082;SHT31;58740;50.672;18.690;2023-05-29T06:02:08;16.37;62.74
71082;SHT31;58740;50.672;18.690;2023-05-29T06:04:36;16.52;61.52
71082;SHT31;58740;50.672;18.690;2023-05-29T06:07:04;16.66;60.73
71082;SHT31;58740;50.672;18.690;2023-05-29T06:09:32;16.80;59.88
71082;SHT31;58740;50.672;18.690;2023-05-29T06:11:59;16.91;59.81
71082;SHT31;58740;50.672;18.690;2023-05-29T06:14:27;17.07;60.20
71082;SHT31;58740;50.672;18.690;2023-05-29T06:16:55;17.24;59.49
71082;SHT31;58740;50.672;18.690;2023-05-29T06:19:23;17.41;59.26
71082;SHT31;58740;50.672;18.690;2023-05-29T06:21:51;17.58;58.74
71082;SHT31;58740;50.672;18.690;2023-05-29T06:24:19;17.74;57.66
71082;SHT31;58740;50.672;18.690;2023-05-29T06:26:46;17.87;57.23
71082;SHT31;58740;50.672;18.690;2023-05-29T06:29:14;18.00;56.96
71082;SHT31;58740;50.672;18.690;2023-05-29T06:31:42;18.12;56.47
71082;SHT31;58740;50.672;18.690;2023-05-29T06:34:10;18.22;54.93
71082;SHT31;58740;50.672;18.690;2023-05-29T06:36:38;18.30;54.44
71082;SHT31;58740;50.672;18.690;2023-05-29T06:39:07;18.39;53.90
71082;SHT31;58740;50.672;18.690;2023-05-29T06:41:35;18.49;53.00
71082;SHT31;58740;50.672;18.690;2023-05-29T06:44:03;18.56;52.42
71082;SHT31;58740;50.672;18.690;2023-05-29T06:46:31;18.65;52.22
71082;SHT31;58740;50.672;18.690;2023-05-29T06:48:59;18.72;52.54
71082;SHT31;58740;50.672;18.690;2023-05-29T06:51:27;18.80;51.80
71082;SHT31;58740;50.672;18.690;2023-05-29T06:53:55;18.89;50.43
71082;SHT31;58740;50.672;18.690;2023-05-29T06:56:23;18.92;49.41
71082;SHT31;58740;50.672;18.690;2023-05-29T06:58:51;18.97;49.26
71082;SHT31;58740;50.672;18.690;2023-05-29T07:01:18;19.02;49.02
71082;SHT31;58740;50.672;18.690;2023-05-29T07:03:46;19.10;50.12
71082;SHT31;58740;50.672;18.690;2023-05-29T07:06:19;19.20;49.03
71082;SHT31;58740;50.672;18.690;2023-05-29T07:08:48;19.27;47.54
71082;SHT31;58740;50.672;18.690;2023-05-29T07:11:15;19.34;47.80
71082;SHT31;58740;50.672;18.690;2023-05-29T07:13:43;19.42;47.26
71082;SHT31;58740;50.672;18.690;2023-05-29T07:16:11;19.49;46.60
71082;SHT31;58740;50.672;18.690;2023-05-29T07:18:51;19.50;45.11
71082;SHT31;58740;50.672;18.690;2023-05-29T07:21:19;19.53;45.63
71082;SHT31;58740;50.672;18.690;2023-05-29T07:23:47;19.61;45.84
71082;SHT31;58740;50.672;18.690;2023-05-29T07:26:15;19.66;45.39
71082;SHT31;58740;50.672;18.690;2023-05-29T07:28:43;19.70;45.48
71082;SHT31;58740;50.672;18.690;2023-05-29T07:31:13;19.74;44.22
71082;SHT31;58740;50.672;18.690;2023-05-29T07:33:41;19.78;45.22
71082;SHT31;58740;50.672;18.690;2023-05-29T07:36:09;19.84;44.46
71082;SHT31;58740;50.672;18.690;2023-05-29T07:38:36;19.82;42.87
71082;SHT31;58740;50.672;18.690;2023-05-29T07:41:04;19.80;43.57
71082;SHT31;58740;50.672;18.690;2023-05-29T07:43:32;19.85;45.04
71082;SHT31;58740;50.672;18.690;2023-05-29T07:46:00;19.95;44.74
71082;SHT31;58740;50.672;18.690;2023-05-29T07:48:29;20.04;44.59
71082;SHT31;58740;50.672;18.690;2023-05-29T07:50:57;20.11;44.62
71082;SHT31;58740;50.672;18.690;2023-05-29T07:53:25;20.17;43.95
71082;SHT31;58740;50.672;18.690;2023-05-29T07:55:53;20.20;44.05
71082;SHT31;58740;50.672;18.690;2023-05-29T07:58:21;20.20;43.82
71082;SHT31;58740;50.672;18.690;2023-05-29T08:00:48;20.22;44.02
71082;SHT31;58740;50.672;18.690;2023-05-29T08:03:16;20.20;42.63
71082;SHT31;58740;50.672;18.690;2023-05-29T08:05:45;20.17;42.28
71082;SHT31;58740;50.672;18.690;2023-05-29T08:08:13;20.11;41.48
71082;SHT31;58740;50.672;18.690;2023-05-29T08:10:41;20.08;41.81
71082;SHT31;58740;50.672;18.690;2023-05-29T08:13:09;20.09;41.52
71082;SHT31;58740;50.672;18.690;2023-05-29T08:15:36;20.10;43.13
71082;SHT31;58740;50.672;18.690;2023-05-29T08:18:04;20.15;42.17
71082;SHT31;58740;50.672;18.690;2023-05-29T08:20:33;20.17;42.18
71082;SHT31;58740;50.672;18.690;2023-05-29T08:23:02;20.22;42.37
71082;SHT31;58740;50.672;18.690;2023-05-29T08:25:30;20.26;41.84
71082;SHT31;58740;50.672;18.690;2023-05-29T08:27:58;20.31;42.20
71082;SHT31;58740;50.672;18.690;2023-05-29T08:30:25;20.36;41.77
71082;SHT31;58740;50.672;18.690;2023-05-29T08:32:53;20.37;42.13
71082;SHT31;58740;50.672;18.690;2023-05-29T08:35:21;20.39;41.14
71082;SHT31;58740;50.672;18.690;2023-05-29T08:37:49;20.39;41.09
71082;SHT31;58740;50.672;18.690;2023-05-29T08:40:17;20.39;41.88
71082;SHT31;58740;50.672;18.690;2023-05-29T08:45:53;20.43;43.02
71082;SHT31;58740;50.672;18.690;2023-05-29T08:48:23;20.49;42.87
71082;SHT31;58740;50.672;18.690;2023-05-29T08:50:55;20.55;42.82
71082;SHT31;58740;50.672;18.690;2023-05-29T08:53:25;20.58;41.30
71082;SHT31;58740;50.672;18.690;2023-05-29T08:55:53;20.56;40.69
71082;SHT31;58740;50.672;18.690;2023-05-29T08:58:23;20.55;41.00
71082;SHT31;58740;50.672;18.690;2023-05-29T09:00:51;20.53;40.46
71082;SHT31;58740;50.672;18.690;2023-05-29T09:03:19;20.52;40.74
71082;SHT31;58740;50.672;18.690;2023-05-29T09:05:48;20.50;40.63
71082;SHT31;58740;50.672;18.690;2023-05-29T09:08:16;20.52;40.98
71082;SHT31;58740;50.672;18.690;2023-05-29T09:10:45;20.54;41.16
71082;SHT31;58740;50.672;18.690;2023-05-29T09:13:13;20.54;40.61
71082;SHT31;58740;50.672;18.690;2023-05-29T09:15:42;20.51;41.44
71082;SHT31;58740;50.672;18.690;2023-05-29T09:18:16;20.56;41.92
71082;SHT31;58740;50.672;18.690;2023-05-29T09:20:45;20.59;41.58
71082;SHT31;58740;50.672;18.690;2023-05-29T09:23:13;20.56;40.43
71082;SHT31;58740;50.672;18.690;2023-05-29T09:25:41;20.56;42.98
71082;SHT31;58740;50.672;18.690;2023-05-29T09:28:11;20.63;42.85
71082;SHT31;58740;50.672;18.690;2023-05-29T09:30:40;20.70;43.16
71082;SHT31;58740;50.672;18.690;2023-05-29T09:33:13;20.75;42.88
71082;SHT31;58740;50.672;18.690;2023-05-29T09:35:44;20.76;41.90
71082;SHT31;58740;50.672;18.690;2023-05-29T09:38:18;20.72;41.41
71082;SHT31;58740;50.672;18.690;2023-05-29T09:41:07;20.71;41.32
71082;SHT31;58740;50.672;18.690;2023-05-29T09:43:35;20.69;41.06
71082;SHT31;58740;50.672;18.690;2023-05-29T09:46:06;20.68;42.08
71082;SHT31;58740;50.672;18.690;2023-05-29T09:48:35;20.71;42.93
71082;SHT31;58740;50.672;18.690;2023-05-29T09:51:02;20.75;43.39
71082;SHT31;58740;50.672;18.690;2023-05-29T09:53:31;20.79;41.89
71082;SHT31;58740;50.672;18.690;2023-05-29T09:55:58;20.81;41.24
71082;SHT31;58740;50.672;18.690;2023-05-29T09:58:27;20.77;41.34
71082;SHT31;58740;50.672;18.690;2023-05-29T10:00:55;20.76;41.66
71082;SHT31;58740;50.672;18.690;2023-05-29T10:03:25;20.79;42.21
71082;SHT31;58740;50.672;18.690;2023-05-29T10:05:55;20.82;42.00
71082;SHT31;58740;50.672;18.690;2023-05-29T10:08:26;20.83;41.17
71082;SHT31;58740;50.672;18.690;2023-05-29T10:10:59;20.79;41.05
71082;SHT31;58740;50.672;18.690;2023-05-29T10:13:31;20.74;40.42
71082;SHT31;58740;50.672;18.690;2023-05-29T10:16:08;20.70;40.88
71082;SHT31;58740;50.672;18.690;2023-05-29T10:18:43;20.71;41.51
71082;SHT31;58740;50.672;18.690;2023-05-29T10:21:17;20.72;41.28
71082;SHT31;58740;50.672;18.690;2023-05-29T10:23:46;20.73;41.62
71082;SHT31;58740;50.672;18.690;2023-05-29T10:26:21;20.76;40.78
71082;SHT31;58740;50.672;18.690;2023-05-29T10:35:10;20.78;42.04
71082;SHT31;58740;50.672;18.690;2023-05-29T10:37:52;20.84;41.13
71082;SHT31;58740;50.672;18.690;2023-05-29T10:40:30;20.86;41.65
71082;SHT31;58740;50.672;18.690;2023-05-29T10:42:58;20.88;41.47
71082;SHT31;58740;50.672;18.690;2023-05-29T10:50:43;20.87;40.28
71082;SHT31;58740;50.672;18.690;2023-05-29T10:53:15;20.87;40.86
71082;SHT31;58740;50.672;18.690;2023-05-29T10:55:45;20.89;41.20
71082;SHT31;58740;50.672;18.690;2023-05-29T10:58:20;20.91;41.91
71082;SHT31;58740;50.672;18.690;2023-05-29T11:00:52;20.94;41.66
71082;SHT31;58740;50.672;18.690;2023-05-29T11:03:24;20.98;40.87
71082;SHT31;58740;50.672;18.690;2023-05-29T11:05:58;20.99;40.78
71082;SHT31;58740;50.672;18.690;2023-05-29T11:08:35;21.01;42.14
71082;SHT31;58740;50.672;18.690;2023-05-29T11:11:13;21.05;41.56
71082;SHT31;58740;50.672;18.690;2023-05-29T11:13:56;21.08;41.87
71082;SHT31;58740;50.672;18.690;2023-05-29T11:19:03;21.11;41.12
71082;SHT31;58740;50.672;18.690;2023-05-29T11:24:22;21.16;40.45
71082;SHT31;58740;50.672;18.690;2023-05-29T11:26:54;21.18;41.26
71082;SHT31;58740;50.672;18.690;2023-05-29T11:29:26;21.18;40.87
71082;SHT31;58740;50.672;18.690;2023-05-29T11:32:04;21.15;40.90
71082;SHT31;58740;50.672;18.690;2023-05-29T11:34:37;21.13;41.45
71082;SHT31;58740;50.672;18.690;2023-05-29T11:37:08;21.09;40.97
71082;SHT31;58740;50.672;18.690;2023-05-29T11:39:36;21.02;41.06
71082;SHT31;58740;50.672;18.690;2023-05-29T11:42:05;20.96;41.29
71082;SHT31;58740;50.672;18.690;2023-05-29T11:44:35;20.94;40.04
71082;SHT31;58740;50.672;18.690;2023-05-29T11:47:03;20.98;40.16
71082;SHT31;58740;50.672;18.690;2023-05-29T11:49:35;21.03;40.28
71082;SHT31;58740;50.672;18.690;2023-05-29T11:52:23;21.12;40.15
71082;SHT31;58740;50.672;18.690;2023-05-29T11:54:51;21.17;40.59
71082;SHT31;58740;50.672;18.690;2023-05-29T11:57:20;21.18;40.43
71082;SHT31;58740;50.672;18.690;2023-05-29T11:59:50;21.19;39.80
71082;SHT31;58740;50.672;18.690;2023-05-29T12:02:29;21.20;39.83
71082;SHT31;58740;50.672;18.690;2023-05-29T12:05:05;21.25;39.24
71082;SHT31;58740;50.672;18.690;2023-05-29T12:07:36;21.26;39.80
71082;SHT31;58740;50.672;18.690;2023-05-29T12:12:40;21.34;40.61
71082;SHT31;58740;50.672;18.690;2023-05-29T12:15:09;21.35;39.55
71082;SHT31;58740;50.672;18.690;2023-05-29T12:17:38;21.35;39.68
71082;SHT31;58740;50.672;18.690;2023-05-29T12:20:08;21.37;39.82
71082;SHT31;58740;50.672;18.690;2023-05-29T12:22:39;21.42;40.01
71082;SHT31;58740;50.672;18.690;2023-05-29T12:25:10;21.48;41.05
71082;SHT31;58740;50.672;18.690;2023-05-29T12:27:42;21.55;41.72
71082;SHT31;58740;50.672;18.690;2023-05-29T12:30:23;21.60;41.18
71082;SHT31;58740;50.672;18.690;2023-05-29T12:33:00;21.63;41.26
71082;SHT31;58740;50.672;18.690;2023-05-29T12:35:29;21.66;40.94
71082;SHT31;58740;50.672;18.690;2023-05-29T12:37:58;21.69;40.40
71082;SHT31;58740;50.672;18.690;2023-05-29T12:40:29;21.71;40.10
71082;SHT31;58740;50.672;18.690;2023-05-29T12:43:01;21.69;39.65
71082;SHT31;58740;50.672;18.690;2023-05-29T12:45:34;21.69;39.36
71082;SHT31;58740;50.672;18.690;2023-05-29T12:48:03;21.70;40.02
71082;SHT31;58740;50.672;18.690;2023-05-29T12:50:36;21.73;41.25
71082;SHT31;58740;50.672;18.690;2023-05-29T12:53:07;21.77;41.17
71082;SHT31;58740;50.672;18.690;2023-05-29T12:55:39;21.81;40.98
71082;SHT31;58740;50.672;18.690;2023-05-29T12:58:10;21.81;40.30
71082;SHT31;58740;50.672;18.690;2023-05-29T13:00:40;21.81;39.58
71082;SHT31;58740;50.672;18.690;2023-05-29T13:03:10;21.83;39.23
71082;SHT31;58740;50.672;18.690;2023-05-29T13:05:39;21.84;41.06
71082;SHT31;58740;50.672;18.690;2023-05-29T13:08:06;21.85;40.73
71082;SHT31;58740;50.672;18.690;2023-05-29T13:10:35;21.86;40.30
71082;SHT31;58740;50.672;18.690;2023-05-29T13:13:03;21.88;39.84
71082;SHT31;58740;50.672;18.690;2023-05-29T13:15:31;21.88;39.51
71082;SHT31;58740;50.672;18.690;2023-05-29T13:18:01;21.84;39.64
71082;SHT31;58740;50.672;18.690;2023-05-29T13:20:29;21.83;40.16
71082;SHT31;58740;50.672;18.690;2023-05-29T13:22:59;21.85;39.78
71082;SHT31;58740;50.672;18.690;2023-05-29T13:25:27;21.85;38.15
71082;SHT31;58740;50.672;18.690;2023-05-29T13:27:55;21.84;38.86
71082;SHT31;58740;50.672;18.690;2023-05-29T13:30:24;21.83;38.90
71082;SHT31;58740;50.672;18.690;2023-05-29T13:32:52;21.81;38.87
71082;SHT31;58740;50.672;18.690;2023-05-29T13:35:20;21.82;39.40
71082;SHT31;58740;50.672;18.690;2023-05-29T13:37:48;21.81;39.36
71082;SHT31;58740;50.672;18.690;2023-05-29T13:40:17;21.83;39.77
71082;SHT31;58740;50.672;18.690;2023-05-29T13:42:44;21.85;39.53
71082;SHT31;58740;50.672;18.690;2023-05-29T13:45:12;21.87;39.66
71082;SHT31;58740;50.672;18.690;2023-05-29T13:47:41;21.89;40.03
71082;SHT31;58740;50.672;18.690;2023-05-29T13:50:09;21.89;39.77
71082;SHT31;58740;50.672;18.690;2023-05-29T13:52:38;21.87;39.04
71082;SHT31;58740;50.672;18.690;2023-05-29T13:55:06;21.87;39.51
71082;SHT31;58740;50.672;18.690;2023-05-29T13:57:36;21.88;39.90
71082;SHT31;58740;50.672;18.690;2023-05-29T14:00:05;21.90;40.16
71082;SHT31;58740;50.672;18.690;2023-05-29T14:02:35;21.92;39.43
71082;SHT31;58740;50.672;18.690;2023-05-29T14:05:03;21.92;39.17
71082;SHT31;58740;50.672;18.690;2023-05-29T14:07:33;21.88;38.64
71082;SHT31;58740;50.672;18.690;2023-05-29T14:10:01;21.86;39.57
71082;SHT31;58740;50.672;18.690;2023-05-29T14:12:30;21.85;39.66
71082;SHT31;58740;50.672;18.690;2023-05-29T14:14:58;21.83;39.92
71082;SHT31;58740;50.672;18.690;2023-05-29T14:17:26;21.82;39.37
71082;SHT31;58740;50.672;18.690;2023-05-29T14:19:54;21.83;39.26
71082;SHT31;58740;50.672;18.690;2023-05-29T14:22:23;21.83;39.43
71082;SHT31;58740;50.672;18.690;2023-05-29T14:24:50;21.82;39.57
71082;SHT31;58740;50.672;18.690;2023-05-29T14:27:18;21.81;39.60
71082;SHT31;58740;50.672;18.690;2023-05-29T14:29:48;21.79;39.92
71082;SHT31;58740;50.672;18.690;2023-05-29T14:32:16;21.78;39.36
71082;SHT31;58740;50.672;18.690;2023-05-29T14:34:44;21.77;39.18
71082;SHT31;58740;50.672;18.690;2023-05-29T14:37:12;21.75;39.01
71082;SHT31;58740;50.672;18.690;2023-05-29T14:39:40;21.73;39.00
71082;SHT31;58740;50.672;18.690;2023-05-29T14:42:07;21.70;39.24
71082;SHT31;58740;50.672;18.690;2023-05-29T14:44:35;21.69;39.20
71082;SHT31;58740;50.672;18.690;2023-05-29T14:47:03;21.67;38.89
71082;SHT31;58740;50.672;18.690;2023-05-29T14:49:31;21.66;39.23
71082;SHT31;58740;50.672;18.690;2023-05-29T14:52:00;21.64;38.90
71082;SHT31;58740;50.672;18.690;2023-05-29T14:54:30;21.63;39.16
71082;SHT31;58740;50.672;18.690;2023-05-29T14:56:58;21.62;39.66
71082;SHT31;58740;50.672;18.690;2023-05-29T14:59:26;21.62;39.30
71082;SHT31;58740;50.672;18.690;2023-05-29T15:01:53;21.63;39.10
71082;SHT31;58740;50.672;18.690;2023-05-29T15:04:21;21.63;39.46
71082;SHT31;58740;50.672;18.690;2023-05-29T15:06:49;21.62;39.13
71082;SHT31;58740;50.672;18.690;2023-05-29T15:09:32;21.61;38.78
71082;SHT31;58740;50.672;18.690;2023-05-29T15:12:00;21.58;38.61
71082;SHT31;58740;50.672;18.690;2023-05-29T15:14:28;21.56;38.89
71082;SHT31;58740;50.672;18.690;2023-05-29T15:16:56;21.56;38.91
71082;SHT31;58740;50.672;18.690;2023-05-29T15:19:24;21.54;39.32
71082;SHT31;58740;50.672;18.690;2023-05-29T15:21:51;21.53;39.48
71082;SHT31;58740;50.672;18.690;2023-05-29T15:24:19;21.50;39.03
71082;SHT31;58740;50.672;18.690;2023-05-29T15:26:47;21.49;39.19
71082;SHT31;58740;50.672;18.690;2023-05-29T15:29:15;21.48;39.23
71082;SHT31;58740;50.672;18.690;2023-05-29T15:31:43;21.48;39.08
71082;SHT31;58740;50.672;18.690;2023-05-29T15:34:11;21.47;39.11
71082;SHT31;58740;50.672;18.690;2023-05-29T15:36:38;21.46;39.23
71082;SHT31;58740;50.672;18.690;2023-05-29T15:39:06;21.43;39.31
71082;SHT31;58740;50.672;18.690;2023-05-29T15:41:34;21.42;38.98
71082;SHT31;58740;50.672;18.690;2023-05-29T15:44:02;21.41;39.13
71082;SHT31;58740;50.672;18.690;2023-05-29T15:46:30;21.40;39.00
71082;SHT31;58740;50.672;18.690;2023-05-29T15:48:58;21.38;39.18
71082;SHT31;58740;50.672;18.690;2023-05-29T15:51:25;21.37;39.00
71082;SHT31;58740;50.672;18.690;2023-05-29T15:53:53;21.36;38.78
71082;SHT31;58740;50.672;18.690;2023-05-29T15:56:22;21.34;39.36
71082;SHT31;58740;50.672;18.690;2023-05-29T15:58:55;21.33;39.27
71082;SHT31;58740;50.672;18.690;2023-05-29T16:01:23;21.33;38.69